sensor_id;sensor_type;location;lat;lon;timestamp;pressure;altitude;pressure_sealevel;temperature;humidity
55550;BME280;41397;49.972;18.944;2023-02-23T00:02:14;101954.67;;;6.91;64.75
55550;BME280;41397;49.972;18.944;2023-02-23T00:05:16;101959.80;;;6.78;65.06
55550;BME280;41397;49.972;18.944;2023-02-23T00:08:17;101960.92;;;6.74;65.36
55550;BME280;41397;49.972;18.944;2023-02-23T00:11:21;101961.80;;;6.75;65.43
55550;BME280;41397;49.972;18.944;2023-02-23T00:14:27;101952.38;;;6.82;65.03
55550;BME280;41397;49.972;18.944;2023-02-23T00:17:31;101965.45;;;6.74;65.43
55550;BME280;41397;49.972;18.944;2023-02-23T00:20:37;101959.39;;;6.87;64.80
55550;BME280;41397;49.972;18.944;2023-02-23T00:23:52;101953.86;;;6.89;64.74
55550;BME280;41397;49.972;18.944;2023-02-23T00:26:53;101949.39;;;6.88;64.35
55550;BME280;41397;49.972;18.944;2023-02-23T00:29:55;101953.70;;;6.73;65.04
55550;BME280;41397;49.972;18.944;2023-02-23T00:32:56;101942.80;;;6.54;65.83
55550;BME280;41397;49.972;18.944;2023-02-23T00:36:05;101946.05;;;6.62;65.46
55550;BME280;41397;49.972;18.944;2023-02-23T00:42:44;101946.66;;;6.69;65.03
55550;BME280;41397;49.972;18.944;2023-02-23T00:45:55;101952.40;;;6.63;65.56
55550;BME280;41397;49.972;18.944;2023-02-23T00:48:58;101939.73;;;6.62;65.25
55550;BME280;41397;49.972;18.944;2023-02-23T00:51:59;101945.91;;;6.47;65.69
55550;BME280;41397;49.972;18.944;2023-02-23T00:55:01;101946.50;;;6.53;65.50
55550;BME280;41397;49.972;18.944;2023-02-23T00:58:02;101942.90;;;6.53;65.56
55550;BME280;41397;49.972;18.944;2023-02-23T01:01:12;101943.83;;;6.52;65.49
55550;BME280;41397;49.972;18.944;2023-02-23T01:04:14;101936.05;;;6.44;65.48
55550;BME280;41397;49.972;18.944;2023-02-23T01:07:17;101934.27;;;6.43;65.67
55550;BME280;41397;49.972;18.944;2023-02-23T01:10:18;101946.93;;;6.44;65.69
55550;BME280;41397;49.972;18.944;2023-02-23T01:13:20;101941.11;;;6.52;65.34
55550;BME280;41397;49.972;18.944;2023-02-23T01:16:25;101941.39;;;6.45;65.64
55550;BME280;41397;49.972;18.944;2023-02-23T01:19:28;101940.87;;;6.37;65.63
55550;BME280;41397;49.972;18.944;2023-02-23T01:22:33;101942.38;;;6.24;65.94
55550;BME280;41397;49.972;18.944;2023-02-23T01:25:35;101939.33;;;6.32;65.88
55550;BME280;41397;49.972;18.944;2023-02-23T01:28:36;101947.62;;;6.29;65.60
55550;BME280;41397;49.972;18.944;2023-02-23T01:31:41;101934.86;;;6.10;66.21
55550;BME280;41397;49.972;18.944;2023-02-23T01:34:43;101922.30;;;6.08;66.27
55550;BME280;41397;49.972;18.944;2023-02-23T01:37:44;101927.81;;;6.06;66.16
55550;BME280;41397;49.972;18.944;2023-02-23T01:40:46;101931.60;;;6.02;66.60
55550;BME280;41397;49.972;18.944;2023-02-23T01:47:01;101925.10;;;6.06;66.42
55550;BME280;41397;49.972;18.944;2023-02-23T01:50:02;101913.26;;;5.87;66.83
55550;BME280;41397;49.972;18.944;2023-02-23T01:53:04;101911.77;;;6.00;66.87
55550;BME280;41397;49.972;18.944;2023-02-23T01:56:15;101902.75;;;5.99;66.61
55550;BME280;41397;49.972;18.944;2023-02-23T01:59:19;101909.29;;;5.95;66.55
55550;BME280;41397;49.972;18.944;2023-02-23T02:02:23;101909.86;;;5.82;66.94
55550;BME280;41397;49.972;18.944;2023-02-23T02:05:35;101903.91;;;5.94;66.68
55550;BME280;41397;49.972;18.944;2023-02-23T02:08:40;101893.92;;;5.94;66.62
55550;BME280;41397;49.972;18.944;2023-02-23T02:11:46;101900.08;;;5.77;66.91
55550;BME280;41397;49.972;18.944;2023-02-23T02:14:55;101897.59;;;5.73;67.39
55550;BME280;41397;49.972;18.944;2023-02-23T02:40:43;101883.11;;;5.72;66.75
55550;BME280;41397;49.972;18.944;2023-02-23T02:44:06;101879.32;;;5.76;66.64
55550;BME280;41397;49.972;18.944;2023-02-23T02:47:12;101890.09;;;5.78;66.64
55550;BME280;41397;49.972;18.944;2023-02-23T02:56:49;101889.49;;;5.71;66.96
55550;BME280;41397;49.972;18.944;2023-02-23T02:59:52;101887.30;;;5.59;67.04
55550;BME280;41397;49.972;18.944;2023-02-23T03:03:26;101881.09;;;5.57;67.02
55550;BME280;41397;49.972;18.944;2023-02-23T03:06:38;101890.98;;;5.58;67.18
55550;BME280;41397;49.972;18.944;2023-02-23T03:10:07;101888.87;;;5.44;67.17
55550;BME280;41397;49.972;18.944;2023-02-23T03:27:08;101896.45;;;5.36;67.61
55550;BME280;41397;49.972;18.944;2023-02-23T03:31:13;101882.05;;;5.34;67.54
55550;BME280;41397;49.972;18.944;2023-02-23T03:37:16;101883.84;;;5.35;67.27
55550;BME280;41397;49.972;18.944;2023-02-23T03:40:38;101885.72;;;5.33;67.58
55550;BME280;41397;49.972;18.944;2023-02-23T03:43:58;101885.41;;;5.41;67.02
55550;BME280;41397;49.972;18.944;2023-02-23T03:47:14;101883.84;;;5.35;67.29
55550;BME280;41397;49.972;18.944;2023-02-23T03:50:41;101881.04;;;5.37;67.45
55550;BME280;41397;49.972;18.944;2023-02-23T03:54:02;101879.42;;;5.32;67.29
55550;BME280;41397;49.972;18.944;2023-02-23T03:57:20;101880.85;;;5.41;67.51
55550;BME280;41397;49.972;18.944;2023-02-23T04:00:42;101876.77;;;5.31;67.55
55550;BME280;41397;49.972;18.944;2023-02-23T04:03:57;101886.92;;;5.26;67.68
55550;BME280;41397;49.972;18.944;2023-02-23T04:07:15;101881.20;;;5.11;67.87
55550;BME280;41397;49.972;18.944;2023-02-23T04:10:29;101880.93;;;5.18;67.91
55550;BME280;41397;49.972;18.944;2023-02-23T04:13:48;101875.46;;;5.19;67.88
55550;BME280;41397;49.972;18.944;2023-02-23T04:16:58;101882.72;;;5.19;67.87
55550;BME280;41397;49.972;18.944;2023-02-23T04:20:02;101876.73;;;5.10;67.81
55550;BME280;41397;49.972;18.944;2023-02-23T04:30:08;101874.07;;;5.09;68.09
55550;BME280;41397;49.972;18.944;2023-02-23T04:33:11;101874.63;;;5.17;67.86
55550;BME280;41397;49.972;18.944;2023-02-23T04:36:13;101871.88;;;5.19;67.54
55550;BME280;41397;49.972;18.944;2023-02-23T04:39:15;101872.62;;;5.22;67.68
55550;BME280;41397;49.972;18.944;2023-02-23T04:42:16;101876.20;;;5.23;67.91
55550;BME280;41397;49.972;18.944;2023-02-23T04:45:18;101871.42;;;5.29;67.44
55550;BME280;41397;49.972;18.944;2023-02-23T04:48:21;101856.63;;;5.37;67.11
55550;BME280;41397;49.972;18.944;2023-02-23T04:51:26;101863.34;;;5.28;66.98
55550;BME280;41397;49.972;18.944;2023-02-23T04:54:37;101871.88;;;5.19;67.65
55550;BME280;41397;49.972;18.944;2023-02-23T04:57:39;101874.59;;;5.19;67.49
55550;BME280;41397;49.972;18.944;2023-02-23T05:00:40;101874.71;;;5.16;67.55
55550;BME280;41397;49.972;18.944;2023-02-23T05:03:42;101860.12;;;5.18;67.56
55550;BME280;41397;49.972;18.944;2023-02-23T05:06:44;101859.00;;;5.24;67.29
55550;BME280;41397;49.972;18.944;2023-02-23T05:09:45;101864.30;;;5.27;66.92
55550;BME280;41397;49.972;18.944;2023-02-23T05:12:58;101865.45;;;5.21;67.29
55550;BME280;41397;49.972;18.944;2023-02-23T05:16:07;101862.73;;;5.21;67.32
55550;BME280;41397;49.972;18.944;2023-02-23T05:19:09;101860.89;;;5.22;67.33
55550;BME280;41397;49.972;18.944;2023-02-23T05:22:15;101871.36;;;5.09;67.64
55550;BME280;41397;49.972;18.944;2023-02-23T05:25:19;101866.76;;;5.11;67.67
55550;BME280;41397;49.972;18.944;2023-02-23T05:28:20;101865.67;;;5.15;67.93
55550;BME280;41397;49.972;18.944;2023-02-23T05:31:23;101872.75;;;5.19;67.53
55550;BME280;41397;49.972;18.944;2023-02-23T05:34:40;101872.57;;;5.24;67.35
55550;BME280;41397;49.972;18.944;2023-02-23T05:37:40;101871.74;;;5.22;67.37
55550;BME280;41397;49.972;18.944;2023-02-23T05:40:45;101878.65;;;5.29;67.01
55550;BME280;41397;49.972;18.944;2023-02-23T05:43:59;101872.48;;;5.25;67.37
55550;BME280;41397;49.972;18.944;2023-02-23T05:47:01;101875.38;;;5.21;67.16
55550;BME280;41397;49.972;18.944;2023-02-23T05:50:06;101867.14;;;5.24;66.81
55550;BME280;41397;49.972;18.944;2023-02-23T05:53:14;101878.61;;;5.30;66.90
55550;BME280;41397;49.972;18.944;2023-02-23T05:56:18;101876.16;;;5.24;67.09
55550;BME280;41397;49.972;18.944;2023-02-23T05:59:22;101875.15;;;5.27;66.96
55550;BME280;41397;49.972;18.944;2023-02-23T06:02:29;101879.55;;;5.29;67.17
55550;BME280;41397;49.972;18.944;2023-02-23T06:05:31;101888.17;;;5.39;66.90
55550;BME280;41397;49.972;18.944;2023-02-23T06:08:33;101882.70;;;5.41;66.89
55550;BME280;41397;49.972;18.944;2023-02-23T06:11:34;101884.39;;;5.43;67.09
55550;BME280;41397;49.972;18.944;2023-02-23T06:14:37;101875.98;;;5.49;66.65
55550;BME280;41397;49.972;18.944;2023-02-23T06:17:38;101884.95;;;5.51;66.42
55550;BME280;41397;49.972;18.944;2023-02-23T06:20:40;101886.84;;;5.49;66.85
55550;BME280;41397;49.972;18.944;2023-02-23T06:23:41;101882.28;;;5.50;66.39
55550;BME280;41397;49.972;18.944;2023-02-23T06:26:45;101900.21;;;5.54;66.51
55550;BME280;41397;49.972;18.944;2023-02-23T06:29:46;101896.40;;;5.58;66.37
55550;BME280;41397;49.972;18.944;2023-02-23T06:32:48;101885.27;;;5.64;66.48
55550;BME280;41397;49.972;18.944;2023-02-23T06:35:50;101893.17;;;5.70;66.20
55550;BME280;41397;49.972;18.944;2023-02-23T06:38:57;101891.11;;;5.75;66.08
55550;BME280;41397;49.972;18.944;2023-02-23T06:41:59;101894.92;;;5.71;66.29
55550;BME280;41397;49.972;18.944;2023-02-23T06:45:01;101897.64;;;5.71;66.27
55550;BME280;41397;49.972;18.944;2023-02-23T06:48:03;101893.09;;;5.72;65.81
55550;BME280;41397;49.972;18.944;2023-02-23T06:51:05;101888.15;;;5.82;65.59
55550;BME280;41397;49.972;18.944;2023-02-23T06:54:06;101893.23;;;5.89;65.97
55550;BME280;41397;49.972;18.944;2023-02-23T06:57:08;101901.14;;;5.95;65.91
55550;BME280;41397;49.972;18.944;2023-02-23T07:00:12;101902.11;;;5.72;65.85
55550;BME280;41397;49.972;18.944;2023-02-23T07:03:18;101903.89;;;5.73;66.24
55550;BME280;41397;49.972;18.944;2023-02-23T07:06:20;101903.80;;;5.75;66.20
55550;BME280;41397;49.972;18.944;2023-02-23T07:09:21;101903.95;;;5.72;66.37
55550;BME280;41397;49.972;18.944;2023-02-23T07:12:23;101894.64;;;5.77;66.58
55550;BME280;41397;49.972;18.944;2023-02-23T07:15:24;101903.42;;;5.84;66.09
55550;BME280;41397;49.972;18.944;2023-02-23T07:18:26;101898.91;;;5.83;66.15
55550;BME280;41397;49.972;18.944;2023-02-23T07:21:29;101905.17;;;5.85;66.39
55550;BME280;41397;49.972;18.944;2023-02-23T07:24:32;101895.77;;;5.94;65.98
55550;BME280;41397;49.972;18.944;2023-02-23T07:27:33;101908.80;;;6.06;66.02
55550;BME280;41397;49.972;18.944;2023-02-23T07:30:35;101900.37;;;6.12;65.74
55550;BME280;41397;49.972;18.944;2023-02-23T07:33:36;101896.20;;;6.24;65.30
55550;BME280;41397;49.972;18.944;2023-02-23T07:36:38;101893.63;;;6.21;65.56
55550;BME280;41397;49.972;18.944;2023-02-23T07:39:39;101892.70;;;6.22;65.42
55550;BME280;41397;49.972;18.944;2023-02-23T07:42:41;101890.38;;;6.13;65.91
55550;BME280;41397;49.972;18.944;2023-02-23T07:45:42;101894.65;;;6.18;65.72
55550;BME280;41397;49.972;18.944;2023-02-23T07:48:44;101890.63;;;6.27;65.49
55550;BME280;41397;49.972;18.944;2023-02-23T07:51:46;101891.05;;;6.18;65.29
55550;BME280;41397;49.972;18.944;2023-02-23T07:54:48;101890.27;;;6.35;65.43
55550;BME280;41397;49.972;18.944;2023-02-23T07:57:49;101892.69;;;6.41;65.21
55550;BME280;41397;49.972;18.944;2023-02-23T08:00:51;101902.11;;;6.34;64.96
55550;BME280;41397;49.972;18.944;2023-02-23T08:03:52;101884.64;;;6.39;65.42
55550;BME280;41397;49.972;18.944;2023-02-23T08:06:54;101893.22;;;6.30;65.32
55550;BME280;41397;49.972;18.944;2023-02-23T08:09:55;101893.37;;;6.46;65.27
55550;BME280;41397;49.972;18.944;2023-02-23T08:12:57;101890.23;;;6.55;65.09
55550;BME280;41397;49.972;18.944;2023-02-23T08:15:59;101884.04;;;6.52;65.61
55550;BME280;41397;49.972;18.944;2023-02-23T08:19:01;101894.35;;;6.64;65.18
55550;BME280;41397;49.972;18.944;2023-02-23T08:22:03;101883.02;;;6.73;64.97
55550;BME280;41397;49.972;18.944;2023-02-23T08:25:06;101893.53;;;6.81;64.58
55550;BME280;41397;49.972;18.944;2023-02-23T08:28:07;101885.72;;;6.92;64.66
55550;BME280;41397;49.972;18.944;2023-02-23T08:31:09;101876.54;;;6.95;64.40
55550;BME280;41397;49.972;18.944;2023-02-23T08:34:11;101881.55;;;7.04;64.27
55550;BME280;41397;49.972;18.944;2023-02-23T08:37:12;101880.84;;;7.18;64.49
55550;BME280;41397;49.972;18.944;2023-02-23T08:40:14;101896.32;;;7.34;64.08
55550;BME280;41397;49.972;18.944;2023-02-23T08:43:21;101896.66;;;7.46;63.40
55550;BME280;41397;49.972;18.944;2023-02-23T08:46:22;101887.99;;;7.55;62.95
55550;BME280;41397;49.972;18.944;2023-02-23T08:49:24;101892.34;;;7.59;62.98
55550;BME280;41397;49.972;18.944;2023-02-23T08:52:26;101882.41;;;7.75;62.48
55550;BME280;41397;49.972;18.944;2023-02-23T08:58:46;101884.16;;;7.94;62.00
55550;BME280;41397;49.972;18.944;2023-02-23T09:01:48;101886.16;;;7.90;62.14
55550;BME280;41397;49.972;18.944;2023-02-23T09:04:50;101874.45;;;7.88;62.14
55550;BME280;41397;49.972;18.944;2023-02-23T09:07:54;101881.58;;;7.91;62.07
55550;BME280;41397;49.972;18.944;2023-02-23T09:10:55;101871.62;;;8.07;62.13
55550;BME280;41397;49.972;18.944;2023-02-23T09:13:57;101873.48;;;8.07;61.79
55550;BME280;41397;49.972;18.944;2023-02-23T09:16:58;101877.64;;;8.14;61.88
55550;BME280;41397;49.972;18.944;2023-02-23T09:20:03;101864.94;;;8.30;61.59
55550;BME280;41397;49.972;18.944;2023-02-23T09:23:06;101866.92;;;8.44;61.38
55550;BME280;41397;49.972;18.944;2023-02-23T09:26:07;101865.00;;;8.46;61.27
55550;BME280;41397;49.972;18.944;2023-02-23T09:29:09;101862.55;;;8.57;61.13
55550;BME280;41397;49.972;18.944;2023-02-23T09:32:11;101867.40;;;8.68;60.87
55550;BME280;41397;49.972;18.944;2023-02-23T09:35:17;101861.34;;;8.79;60.63
55550;BME280;41397;49.972;18.944;2023-02-23T09:38:26;101863.27;;;8.77;60.73
55550;BME280;41397;49.972;18.944;2023-02-23T09:45:16;101859.13;;;9.01;60.73
55550;BME280;41397;49.972;18.944;2023-02-23T09:48:22;101867.63;;;9.11;60.44
55550;BME280;41397;49.972;18.944;2023-02-23T09:51:25;101864.39;;;9.04;60.38
55550;BME280;41397;49.972;18.944;2023-02-23T09:54:33;101864.83;;;9.13;59.99
55550;BME280;41397;49.972;18.944;2023-02-23T09:57:44;101864.45;;;9.19;60.33
55550;BME280;41397;49.972;18.944;2023-02-23T10:04:06;101863.13;;;9.26;60.06
55550;BME280;41397;49.972;18.944;2023-02-23T10:10:39;101860.56;;;9.39;59.76
55550;BME280;41397;49.972;18.944;2023-02-23T10:23:34;101854.62;;;9.46;60.06
55550;BME280;41397;49.972;18.944;2023-02-23T10:26:45;101848.02;;;9.50;60.30
55550;BME280;41397;49.972;18.944;2023-02-23T10:29:57;101849.99;;;9.63;60.54
55550;BME280;41397;49.972;18.944;2023-02-23T10:39:37;101840.02;;;10.06;59.57
55550;BME280;41397;49.972;18.944;2023-02-23T10:43:01;101838.38;;;10.18;59.66
55550;BME280;41397;49.972;18.944;2023-02-23T10:46:21;101836.41;;;10.20;59.38
55550;BME280;41397;49.972;18.944;2023-02-23T10:53:29;101825.51;;;10.49;58.50
55550;BME280;41397;49.972;18.944;2023-02-23T11:07:20;101800.21;;;10.86;58.57
55550;BME280;41397;49.972;18.944;2023-02-23T11:28:18;101779.88;;;11.30;58.64
55550;BME280;41397;49.972;18.944;2023-02-23T11:31:31;101782.74;;;11.42;58.56
55550;BME280;41397;49.972;18.944;2023-02-23T11:34:36;101773.35;;;11.46;58.13
55550;BME280;41397;49.972;18.944;2023-02-23T11:37:41;101764.35;;;11.56;57.74
55550;BME280;41397;49.972;18.944;2023-02-23T11:44:00;101757.34;;;11.52;58.15
55550;BME280;41397;49.972;18.944;2023-02-23T11:57:19;101760.22;;;11.89;58.13
55550;BME280;41397;49.972;18.944;2023-02-23T12:00:37;101759.67;;;11.97;57.80
55550;BME280;41397;49.972;18.944;2023-02-23T12:03:46;101752.13;;;12.01;57.84
55550;BME280;41397;49.972;18.944;2023-02-23T12:17:35;101732.89;;;12.13;57.50
55550;BME280;41397;49.972;18.944;2023-02-23T12:20:45;101736.95;;;12.20;57.72
55550;BME280;41397;49.972;18.944;2023-02-23T12:24:00;101738.91;;;12.31;57.45
55550;BME280;41397;49.972;18.944;2023-02-23T12:30:55;101728.10;;;12.41;57.52
55550;BME280;41397;49.972;18.944;2023-02-23T12:38:10;101711.61;;;12.54;57.67
55550;BME280;41397;49.972;18.944;2023-02-23T13:12:21;101658.95;;;12.73;57.78
55550;BME280;41397;49.972;18.944;2023-02-23T13:21:53;101660.23;;;12.80;57.37
55550;BME280;41397;49.972;18.944;2023-02-23T13:24:59;101656.13;;;12.85;57.65
55550;BME280;41397;49.972;18.944;2023-02-23T13:28:03;101652.27;;;12.88;57.42
55550;BME280;41397;49.972;18.944;2023-02-23T13:34:34;101652.27;;;12.88;57.78
55550;BME280;41397;49.972;18.944;2023-02-23T13:57:12;101625.39;;;13.16;57.62
55550;BME280;41397;49.972;18.944;2023-02-23T14:00:20;101624.63;;;13.14;58.18
55550;BME280;41397;49.972;18.944;2023-02-23T14:03:26;101620.50;;;13.08;58.02
55550;BME280;41397;49.972;18.944;2023-02-23T14:59:50;101589.36;;;13.31;58.76
55550;BME280;41397;49.972;18.944;2023-02-23T16:25:03;101536.73;;;12.44;60.27
55550;BME280;41397;49.972;18.944;2023-02-23T16:28:20;101542.22;;;12.44;60.44
55550;BME280;41397;49.972;18.944;2023-02-23T17:32:31;101539.61;;;12.19;61.46
55550;BME280;41397;49.972;18.944;2023-02-23T17:38:38;101541.62;;;12.17;61.60
55550;BME280;41397;49.972;18.944;2023-02-23T17:41:44;101535.37;;;12.15;61.55
55550;BME280;41397;49.972;18.944;2023-02-23T17:44:46;101539.73;;;12.17;61.65
55550;BME280;41397;49.972;18.944;2023-02-23T17:47:47;101530.75;;;12.15;61.47
55550;BME280;41397;49.972;18.944;2023-02-23T17:50:56;101533.25;;;12.18;61.61
55550;BME280;41397;49.972;18.944;2023-02-23T17:54:01;101532.28;;;12.19;62.06
55550;BME280;41397;49.972;18.944;2023-02-23T19:02:43;101505.16;;;12.04;62.48
55550;BME280;41397;49.972;18.944;2023-02-23T19:05:49;101496.06;;;12.03;62.52
55550;BME280;41397;49.972;18.944;2023-02-23T19:08:55;101497.80;;;12.04;62.64
55550;BME280;41397;49.972;18.944;2023-02-23T19:13:10;101495.16;;;12.03;62.67
55550;BME280;41397;49.972;18.944;2023-02-23T19:15:35;101489.68;;;12.03;62.49
55550;BME280;41397;49.972;18.944;2023-02-23T19:28:52;101486.59;;;12.07;63.10
55550;BME280;41397;49.972;18.944;2023-02-23T19:35:25;101486.49;;;12.09;63.09
55550;BME280;41397;49.972;18.944;2023-02-23T19:45:28;101474.04;;;12.16;63.41
55550;BME280;41397;49.972;18.944;2023-02-23T19:48:31;101482.02;;;12.19;63.18
55550;BME280;41397;49.972;18.944;2023-02-23T19:51:33;101475.32;;;12.23;63.05
55550;BME280;41397;49.972;18.944;2023-02-23T19:54:35;101477.05;;;12.24;63.08
55550;BME280;41397;49.972;18.944;2023-02-23T19:57:39;101468.73;;;12.26;63.05
55550;BME280;41397;49.972;18.944;2023-02-23T20:00:41;101482.05;;;12.30;63.03
55550;BME280;41397;49.972;18.944;2023-02-23T20:03:44;101480.22;;;12.31;63.20
55550;BME280;41397;49.972;18.944;2023-02-23T20:06:49;101481.09;;;12.31;63.25
55550;BME280;41397;49.972;18.944;2023-02-23T20:09:52;101469.00;;;12.34;63.06
55550;BME280;41397;49.972;18.944;2023-02-23T20:12:54;101469.00;;;12.34;63.01
55550;BME280;41397;49.972;18.944;2023-02-23T20:16:01;101464.89;;;12.39;62.82
55550;BME280;41397;49.972;18.944;2023-02-23T20:19:03;101468.40;;;12.41;62.87
55550;BME280;41397;49.972;18.944;2023-02-23T20:22:07;101469.89;;;12.46;62.61
55550;BME280;41397;49.972;18.944;2023-02-23T20:25:11;101462.43;;;12.48;62.59
55550;BME280;41397;49.972;18.944;2023-02-23T20:28:20;101462.28;;;12.49;62.42
55550;BME280;41397;49.972;18.944;2023-02-23T20:31:30;101452.07;;;12.51;62.36
55550;BME280;41397;49.972;18.944;2023-02-23T20:34:33;101452.94;;;12.52;62.44
55550;BME280;41397;49.972;18.944;2023-02-23T20:37:42;101450.95;;;12.54;62.22
55550;BME280;41397;49.972;18.944;2023-02-23T20:44:40;101440.59;;;12.57;62.37
55550;BME280;41397;49.972;18.944;2023-02-23T20:48:08;101433.13;;;12.59;62.29
55550;BME280;41397;49.972;18.944;2023-02-23T20:51:27;101437.38;;;12.63;62.31
55550;BME280;41397;49.972;18.944;2023-02-23T20:54:34;101435.62;;;12.62;62.34
55550;BME280;41397;49.972;18.944;2023-02-23T20:57:37;101431.90;;;12.63;62.20
55550;BME280;41397;49.972;18.944;2023-02-23T21:00:44;101423.02;;;12.60;62.18
55550;BME280;41397;49.972;18.944;2023-02-23T21:03:50;101421.17;;;12.60;62.12
55550;BME280;41397;49.972;18.944;2023-02-23T21:07:10;101416.66;;;12.59;62.22
55550;BME280;41397;49.972;18.944;2023-02-23T21:10:31;101416.91;;;12.56;62.13
55550;BME280;41397;49.972;18.944;2023-02-23T21:13:39;101409.95;;;12.52;62.19
55550;BME280;41397;49.972;18.944;2023-02-23T21:20:30;101397.81;;;12.43;62.31
55550;BME280;41397;49.972;18.944;2023-02-23T21:37:42;101393.44;;;12.41;62.19
55550;BME280;41397;49.972;18.944;2023-02-23T21:44:16;101379.11;;;12.37;62.41
55550;BME280;41397;49.972;18.944;2023-02-23T21:50:48;101381.48;;;12.42;62.26
55550;BME280;41397;49.972;18.944;2023-02-23T22:00:57;101365.28;;;12.39;62.38
55550;BME280;41397;49.972;18.944;2023-02-23T22:03:59;101376.77;;;12.44;62.59
55550;BME280;41397;49.972;18.944;2023-02-23T22:07:03;101378.75;;;12.42;62.61
55550;BME280;41397;49.972;18.944;2023-02-23T22:10:19;101375.14;;;12.41;62.59
55550;BME280;41397;49.972;18.944;2023-02-23T22:13:21;101375.87;;;12.43;62.47
55550;BME280;41397;49.972;18.944;2023-02-23T22:16:23;101373.01;;;12.45;62.44
55550;BME280;41397;49.972;18.944;2023-02-23T22:22:50;101365.78;;;12.44;62.40
55550;BME280;41397;49.972;18.944;2023-02-23T22:29:25;101366.91;;;12.41;62.43
55550;BME280;41397;49.972;18.944;2023-02-23T22:32:27;101354.05;;;12.42;62.26
55550;BME280;41397;49.972;18.944;2023-02-23T22:35:38;101355.04;;;12.41;62.43
55550;BME280;41397;49.972;18.944;2023-02-23T22:38:40;101352.30;;;12.41;62.32
55550;BME280;41397;49.972;18.944;2023-02-23T22:41:42;101346.81;;;12.41;62.36
55550;BME280;41397;49.972;18.944;2023-02-23T22:44:44;101341.46;;;12.39;62.35
55550;BME280;41397;49.972;18.944;2023-02-23T22:47:45;101336.84;;;12.40;62.40
55550;BME280;41397;49.972;18.944;2023-02-23T22:50:47;101336.59;;;12.43;62.31
55550;BME280;41397;49.972;18.944;2023-02-23T22:53:50;101324.76;;;12.42;62.55
55550;BME280;41397;49.972;18.944;2023-02-23T22:56:51;101327.61;;;12.41;62.41
55550;BME280;41397;49.972;18.944;2023-02-23T22:59:53;101321.40;;;12.39;62.55
55550;BME280;41397;49.972;18.944;2023-02-23T23:02:59;101331.35;;;12.40;62.58
55550;BME280;41397;49.972;18.944;2023-02-23T23:06:08;101319.63;;;12.38;62.56
55550;BME280;41397;49.972;18.944;2023-02-23T23:09:11;101317.76;;;12.38;62.45
55550;BME280;41397;49.972;18.944;2023-02-23T23:12:14;101314.14;;;12.38;62.57
55550;BME280;41397;49.972;18.944;2023-02-23T23:15:19;101324.38;;;12.36;62.54
55550;BME280;41397;49.972;18.944;2023-02-23T23:18:21;101312.41;;;12.37;62.63
55550;BME280;41397;49.972;18.944;2023-02-23T23:21:30;101309.78;;;12.35;62.61
55550;BME280;41397;49.972;18.944;2023-02-23T23:24:33;101296.97;;;12.36;62.78
55550;BME280;41397;49.972;18.944;2023-02-23T23:27:34;101303.31;;;12.36;62.81
55550;BME280;41397;49.972;18.944;2023-02-23T23:30:46;101303.16;;;12.38;62.80
55550;BME280;41397;49.972;18.944;2023-02-23T23:33:49;101296.57;;;12.40;62.99
55550;BME280;41397;49.972;18.944;2023-02-23T23:36:51;101293.83;;;12.40;63.07
55550;BME280;41397;49.972;18.944;2023-02-23T23:39:53;101290.98;;;12.42;62.98
55550;BME280;41397;49.972;18.944;2023-02-23T23:43:01;101292.95;;;12.40;63.14
55550;BME280;41397;49.972;18.944;2023-02-23T23:46:16;101294.23;;;12.36;62.98
55550;BME280;41397;49.972;18.944;2023-02-23T23:49:23;101286.86;;;12.36;63.12
55550;BME280;41397;49.972;18.944;2023-02-23T23:52:25;101286.97;;;12.35;62.92
55550;BME280;41397;49.972;18.944;2023-02-23T23:55:26;101280.62;;;12.34;62.99
55550;BME280;41397;49.972;18.944;2023-02-23T23:58:32;101271.52;;;12.34;63.00
